createdAt,value
2019-04-07T00:00:55.371Z,15.42
2019-04-07T00:03:25.558Z,15.27
2019-04-07T00:05:55.948Z,15.17
2019-04-07T00:08:26.259Z,15.13
2019-04-07T00:10:56.586Z,14.76
2019-04-07T00:13:27.119Z,14.93
2019-04-07T00:15:57.440Z,15.00
2019-04-07T00:18:28.460Z,14.78
2019-04-07T00:20:58.531Z,14.80
2019-04-07T00:23:28.845Z,14.92
2019-04-07T00:25:58.944Z,15.51
2019-04-07T00:28:28.798Z,15.57
2019-04-07T00:30:58.830Z,15.43
2019-04-07T00:33:28.876Z,14.30
2019-04-07T00:35:59.252Z,14.30
2019-04-07T00:38:29.405Z,15.10
2019-04-07T00:40:59.375Z,14.32
2019-04-07T00:43:29.299Z,15.08
2019-04-07T00:45:59.501Z,14.44
2019-04-07T00:48:29.451Z,14.80
2019-04-07T00:51:00.275Z,14.72
2019-04-07T00:53:30.224Z,14.81
2019-04-07T00:56:00.396Z,14.95
2019-04-07T00:58:30.426Z,14.23
2019-04-07T01:01:00.967Z,14.65
2019-04-07T01:03:30.928Z,13.95
2019-04-07T01:06:01.184Z,13.94
2019-04-07T01:08:31.152Z,14.49
2019-04-07T01:11:01.379Z,13.96
2019-04-07T01:13:31.946Z,14.41
2019-04-07T01:16:02.184Z,14.49
2019-04-07T01:18:35.484Z,13.98
2019-04-07T01:21:05.746Z,14.27
2019-04-07T01:23:36.371Z,14.34
2019-04-07T01:26:07.398Z,13.99
2019-04-07T01:28:37.596Z,14.60
2019-04-07T01:31:07.889Z,14.03
2019-04-07T01:33:38.146Z,14.01
2019-04-07T01:36:08.367Z,14.24
2019-04-07T01:38:38.347Z,14.46
2019-04-07T01:41:18.864Z,14.27
2019-04-07T01:43:54.840Z,14.07
2019-04-07T01:46:32.684Z,14.39
2019-04-07T01:49:23.805Z,14.08
2019-04-07T01:52:00.840Z,14.12
2019-04-07T01:54:40.188Z,14.03
2019-04-07T01:57:32.345Z,14.17
2019-04-07T02:00:20.082Z,14.42
2019-04-07T02:02:59.919Z,14.48
2019-04-07T02:05:56.814Z,13.94
2019-04-07T02:08:27.344Z,14.26
2019-04-07T02:11:17.411Z,14.45
2019-04-07T02:14:10.018Z,14.57
2019-04-07T02:16:59.254Z,14.43
2019-04-07T02:19:37.043Z,13.97
2019-04-07T02:22:27.326Z,13.73
2019-04-07T02:25:08.336Z,14.57
2019-04-07T02:27:56.819Z,14.23
2019-04-07T02:30:54.319Z,14.62
2019-04-07T02:33:31.020Z,13.97
2019-04-07T02:36:22.813Z,14.09
2019-04-07T02:38:52.010Z,13.26
2019-04-07T02:41:47.404Z,13.45
2019-04-07T02:44:37.076Z,13.33
2019-04-07T02:47:14.798Z,13.41
2019-04-07T02:50:03.399Z,13.12
2019-04-07T02:52:51.443Z,13.74
2019-04-07T02:55:45.188Z,14.21
2019-04-07T02:58:22.823Z,14.13
2019-04-07T03:01:18.117Z,14.16
2019-04-07T03:04:10.189Z,13.88
2019-04-07T03:06:53.076Z,13.88
2019-04-07T03:09:40.719Z,13.74
2019-04-07T03:12:21.462Z,13.85
2019-04-07T03:15:07.020Z,13.88
2019-04-07T03:18:00.295Z,13.51
2019-04-07T03:20:40.806Z,13.38
2019-04-07T03:23:33.746Z,12.96
2019-04-07T03:26:13.354Z,13.15
2019-04-07T03:29:00.134Z,12.70
2019-04-07T03:31:53.486Z,12.55
2019-04-07T03:34:40.838Z,13.35
2019-04-07T03:37:36.428Z,12.66
2019-04-07T03:40:15.552Z,13.57
2019-04-07T03:42:53.976Z,13.22
2019-04-07T03:45:39.368Z,12.98
2019-04-07T03:48:28.427Z,13.36
2019-04-07T03:51:04.906Z,13.21
2019-04-07T03:53:43.118Z,12.78
2019-04-07T03:56:20.353Z,13.07
2019-04-07T03:59:03.578Z,12.97
2019-04-07T04:02:00.890Z,13.09
2019-04-07T04:04:50.628Z,12.79
2019-04-07T04:07:49.453Z,12.72
2019-04-07T04:10:24.946Z,12.64
2019-04-07T04:13:03.035Z,12.78
2019-04-07T04:15:44.674Z,12.66
2019-04-07T04:18:14.831Z,13.31
2019-04-07T04:20:44.782Z,12.67
2019-04-07T04:23:14.652Z,12.92
2019-04-07T04:25:45.400Z,12.17
2019-04-07T04:28:16.360Z,12.16
2019-04-07T04:30:46.695Z,11.94
2019-04-07T04:33:16.606Z,12.34
2019-04-07T04:35:46.623Z,12.02
2019-04-07T04:38:17.712Z,12.47
2019-04-07T04:40:48.026Z,12.22
2019-04-07T04:43:18.094Z,12.55
2019-04-07T04:45:48.446Z,12.46
2019-04-07T04:48:19.558Z,12.90
2019-04-07T04:50:50.426Z,12.83
2019-04-07T04:53:20.865Z,12.48
2019-04-07T04:55:51.486Z,12.58
2019-04-07T04:58:24.785Z,12.57
2019-04-07T05:00:54.781Z,12.94
2019-04-07T05:03:25.012Z,12.67
2019-04-07T05:05:55.489Z,12.78
2019-04-07T05:08:27.042Z,12.59
2019-04-07T05:10:57.555Z,12.30
2019-04-07T05:13:27.818Z,12.98
2019-04-07T05:15:58.061Z,13.14
2019-04-07T05:18:27.949Z,12.97
2019-04-07T05:20:58.237Z,12.18
2019-04-07T05:23:28.504Z,12.21
2019-04-07T05:25:59.192Z,12.26
2019-04-07T05:28:36.703Z,12.75
2019-04-07T05:31:04.496Z,12.40
2019-04-07T05:33:34.534Z,12.26
2019-04-07T05:36:04.850Z,12.49
2019-04-07T05:38:35.687Z,12.89
2019-04-07T05:41:06.395Z,13.04
2019-04-07T05:43:36.975Z,12.94
2019-04-07T05:46:08.018Z,11.96
2019-04-07T05:48:39.182Z,11.90
2019-04-07T05:51:09.772Z,12.23
2019-04-07T05:53:39.936Z,12.02
2019-04-07T05:56:10.226Z,12.64
2019-04-07T05:58:41.879Z,13.14
2019-04-07T06:01:12.890Z,13.16
2019-04-07T06:03:43.619Z,13.34
2019-04-07T06:06:13.737Z,13.13
2019-04-07T06:08:46.979Z,12.39
2019-04-07T06:11:15.945Z,12.08
2019-04-07T06:13:46.605Z,12.31
2019-04-07T06:16:19.939Z,12.26
2019-04-07T06:18:48.322Z,12.28
2019-04-07T06:21:19.076Z,13.90
2019-04-07T06:23:49.601Z,12.94
2019-04-07T06:26:19.806Z,12.58
2019-04-07T06:28:53.271Z,12.78
2019-04-07T06:31:24.412Z,13.53
2019-04-07T06:33:55.097Z,12.69
2019-04-07T06:36:26.547Z,13.13
2019-04-07T06:38:56.784Z,12.71
2019-04-07T06:41:30.061Z,13.22
2019-04-07T06:44:08.913Z,13.26
2019-04-07T06:46:49.271Z,13.11
2019-04-07T06:49:27.809Z,13.17
2019-04-07T06:52:13.825Z,14.01
2019-04-07T06:55:08.885Z,14.62
2019-04-07T06:57:58.245Z,14.01
2019-04-07T07:00:46.272Z,13.42
2019-04-07T07:03:38.116Z,14.24
2019-04-07T07:06:25.426Z,13.15
2019-04-07T07:09:14.760Z,13.45
2019-04-07T07:11:55.074Z,13.55
2019-04-07T07:14:41.573Z,13.86
2019-04-07T07:17:22.691Z,13.55
2019-04-07T07:20:15.978Z,13.94
2019-04-07T07:22:49.612Z,14.00
2019-04-07T07:25:20.427Z,14.20
2019-04-07T07:27:52.312Z,14.36
2019-04-07T07:30:25.978Z,15.08
2019-04-07T07:33:01.950Z,14.22
2019-04-07T07:35:32.320Z,14.77
2019-04-07T07:38:02.776Z,15.34
2019-04-07T07:40:34.958Z,14.65
2019-04-07T07:43:05.633Z,14.21
2019-04-07T07:45:36.262Z,15.24
2019-04-07T07:48:07.404Z,14.88
2019-04-07T07:50:38.739Z,14.74
2019-04-07T07:53:10.339Z,15.62
2019-04-07T07:55:41.239Z,15.17
2019-04-07T07:58:12.232Z,15.34
2019-04-07T08:00:43.420Z,15.39
2019-04-07T08:03:13.927Z,15.59
2019-04-07T08:05:44.520Z,15.98
2019-04-07T08:08:15.681Z,15.79
2019-04-07T08:10:46.352Z,15.61
2019-04-07T08:13:16.906Z,15.45
2019-04-07T08:15:47.127Z,15.60
2019-04-07T08:18:19.600Z,15.26
2019-04-07T08:20:49.093Z,15.59
2019-04-07T08:23:19.854Z,15.81
2019-04-07T08:25:52.902Z,16.25
2019-04-07T08:28:21.885Z,16.20
2019-04-07T08:30:51.987Z,15.74
2019-04-07T08:33:22.601Z,15.78
2019-04-07T08:35:55.042Z,15.92
2019-04-07T08:38:26.766Z,15.74
2019-04-07T08:40:56.749Z,15.99
2019-04-07T08:43:27.616Z,16.34
2019-04-07T08:45:58.003Z,16.92
2019-04-07T08:48:28.914Z,16.73
2019-04-07T08:51:00.741Z,16.83
2019-04-07T08:53:30.617Z,16.87
2019-04-07T08:56:00.961Z,16.62
2019-04-07T08:58:36.148Z,16.44
2019-04-07T09:01:03.356Z,16.59
2019-04-07T09:03:34.636Z,16.81
2019-04-07T09:06:04.794Z,16.80
2019-04-07T09:08:36.983Z,16.65
2019-04-07T09:11:15.762Z,17.07
2019-04-07T09:13:51.334Z,17.40
2019-04-07T09:16:53.829Z,17.10
2019-04-07T09:19:41.448Z,16.73
2019-04-07T09:22:20.108Z,17.14
2019-04-07T09:25:08.506Z,16.88
2019-04-07T09:28:15.387Z,16.72
2019-04-07T09:31:14.356Z,17.13
2019-04-07T09:34:11.570Z,17.10
2019-04-07T09:36:59.058Z,17.82
2019-04-07T09:39:52.787Z,18.15
2019-04-07T09:42:17.194Z,17.88
2019-04-07T09:44:56.346Z,17.97
2019-04-07T09:47:46.872Z,17.80
2019-04-07T09:50:32.747Z,17.71
2019-04-07T09:53:21.375Z,17.79
2019-04-07T09:56:23.012Z,17.85
2019-04-07T09:59:03.513Z,18.01
2019-04-07T10:01:59.288Z,17.24
2019-04-07T10:04:55.742Z,17.78
2019-04-07T10:07:40.295Z,18.06
2019-04-07T10:10:19.405Z,18.20
2019-04-07T10:13:07.680Z,19.14
2019-04-07T10:16:02.855Z,18.95
2019-04-07T10:18:58.075Z,17.88
2019-04-07T10:21:49.715Z,18.20
2019-04-07T10:24:38.034Z,18.43
2019-04-07T10:27:29.654Z,18.08
2019-04-07T10:30:11.718Z,17.89
2019-04-07T10:33:03.881Z,17.92
2019-04-07T10:35:43.515Z,17.87
2019-04-07T10:38:36.207Z,17.79
2019-04-07T10:41:34.666Z,18.02
2019-04-07T10:44:17.169Z,17.85
2019-04-07T10:46:56.059Z,17.81
2019-04-07T10:49:58.534Z,18.34
2019-04-07T10:52:49.343Z,18.12
2019-04-07T10:55:27.685Z,18.48
2019-04-07T10:58:08.249Z,18.96
2019-04-07T11:00:58.680Z,20.04
2019-04-07T11:03:54.855Z,18.17
2019-04-07T11:06:43.952Z,18.05
2019-04-07T11:09:51.175Z,18.21
2019-04-07T11:12:45.804Z,18.48
2019-04-07T11:15:27.747Z,18.17
2019-04-07T11:18:19.589Z,18.15
2019-04-07T11:21:14.456Z,18.40
2019-04-07T11:23:52.302Z,18.43
2019-04-07T11:26:41.839Z,18.36
2019-04-07T11:29:18.257Z,18.45
2019-04-07T11:32:03.635Z,18.30
2019-04-07T11:34:45.509Z,19.18
2019-04-07T11:37:40.802Z,18.78
2019-04-07T11:40:24.919Z,18.83
2019-04-07T11:43:24.709Z,19.22
2019-04-07T11:46:19.667Z,19.46
2019-04-07T11:49:13.435Z,19.05
2019-04-07T11:52:03.715Z,18.80
2019-04-07T11:54:49.868Z,18.67
2019-04-07T11:57:27.095Z,18.60
2019-04-07T12:00:16.278Z,18.53
2019-04-07T12:03:13.755Z,18.33
2019-04-07T12:06:02.586Z,18.18
2019-04-07T12:08:56.919Z,18.51
2019-04-07T12:11:49.381Z,18.68
2019-04-07T12:14:31.981Z,18.46
2019-04-07T12:17:30.254Z,18.85
2019-04-07T12:20:22.732Z,18.89
2019-04-07T12:23:01.991Z,19.28
2019-04-07T12:25:54.734Z,19.75
2019-04-07T12:28:35.349Z,18.90
2019-04-07T12:31:13.774Z,18.89
2019-04-07T12:33:57.351Z,20.00
2019-04-07T12:36:34.843Z,19.42
2019-04-07T12:39:18.944Z,19.80
2019-04-07T12:41:59.460Z,19.03
2019-04-07T12:44:55.520Z,19.12
2019-04-07T12:47:34.518Z,18.67
2019-04-07T12:50:26.834Z,18.60
2019-04-07T12:53:16.216Z,18.72
2019-04-07T12:56:00.973Z,18.62
2019-04-07T12:58:50.882Z,19.45
2019-04-07T13:01:44.551Z,19.12
2019-04-07T13:04:48.711Z,18.82
2019-04-07T13:07:52.119Z,18.58
2019-04-07T13:10:41.648Z,19.33
2019-04-07T13:13:44.904Z,18.94
2019-04-07T13:16:26.320Z,19.06
2019-04-07T13:19:22.100Z,19.04
2019-04-07T13:22:02.163Z,19.46
2019-04-07T13:24:45.490Z,19.59
2019-04-07T13:27:38.907Z,19.46
2019-04-07T13:30:18.156Z,18.85
2019-04-07T13:32:57.532Z,19.11
2019-04-07T13:35:45.766Z,18.71
2019-04-07T13:38:34.665Z,18.84
2019-04-07T13:41:17.753Z,19.04
2019-04-07T13:43:59.428Z,19.44
2019-04-07T13:46:38.866Z,19.05
2019-04-07T13:49:24.155Z,18.79
2019-04-07T13:52:00.659Z,19.11
2019-04-07T13:54:49.335Z,19.02
2019-04-07T13:57:44.091Z,19.33
2019-04-07T14:00:21.712Z,19.25
2019-04-07T14:03:00.238Z,18.96
2019-04-07T14:05:38.842Z,19.07
2019-04-07T14:08:26.362Z,19.35
2019-04-07T14:11:15.932Z,19.04
2019-04-07T14:14:05.622Z,19.08
2019-04-07T14:16:44.552Z,19.07
2019-04-07T14:19:32.226Z,18.95
2019-04-07T14:22:20.914Z,19.48
2019-04-07T14:25:09.106Z,19.22
2019-04-07T14:27:46.192Z,19.71
2019-04-07T14:30:38.220Z,19.55
2019-04-07T14:33:33.007Z,19.13
2019-04-07T14:36:09.671Z,19.15
2019-04-07T14:38:45.551Z,19.52
2019-04-07T14:41:34.504Z,19.40
2019-04-07T14:44:22.594Z,19.43
2019-04-07T14:47:10.755Z,19.59
2019-04-07T14:49:53.419Z,19.72
2019-04-07T14:52:42.935Z,20.66
2019-04-07T14:55:31.501Z,19.28
2019-04-07T14:58:18.956Z,19.48
2019-04-07T15:01:27.063Z,19.52
2019-04-07T15:03:57.447Z,19.55
2019-04-07T15:06:30.930Z,19.10
2019-04-07T15:09:10.441Z,19.53
2019-04-07T15:11:45.543Z,19.57
2019-04-07T15:14:15.689Z,19.42
2019-04-07T15:16:45.640Z,19.60
2019-04-07T15:19:16.559Z,19.99
2019-04-07T15:21:48.846Z,19.86
2019-04-07T15:24:18.706Z,19.28
2019-04-07T15:26:50.130Z,19.40
2019-04-07T15:29:21.000Z,19.37
2019-04-07T15:31:52.177Z,19.59
2019-04-07T15:34:23.082Z,19.80
2019-04-07T15:36:53.036Z,19.50
2019-04-07T15:39:28.905Z,19.62
2019-04-07T15:41:59.588Z,19.70
2019-04-07T15:44:30.134Z,19.51
2019-04-07T15:47:00.339Z,19.44
2019-04-07T15:49:31.057Z,20.20
2019-04-07T15:52:04.452Z,20.75
2019-04-07T15:54:33.904Z,19.66
2019-04-07T15:57:04.059Z,19.51
2019-04-07T15:59:34.234Z,19.73
2019-04-07T16:02:08.526Z,19.29
2019-04-07T16:04:36.431Z,19.44
2019-04-07T16:07:06.611Z,19.92
2019-04-07T16:09:48.823Z,19.44
2019-04-07T16:12:08.244Z,19.90
2019-04-07T16:14:40.269Z,20.52
2019-04-07T16:17:11.999Z,19.97
2019-04-07T16:19:45.071Z,19.42
2019-04-07T16:22:14.651Z,19.93
2019-04-07T16:24:46.338Z,19.33
2019-04-07T16:27:17.090Z,19.01
2019-04-07T16:29:47.928Z,19.43
2019-04-07T16:32:18.025Z,19.52
2019-04-07T16:34:48.269Z,19.47
2019-04-07T16:37:18.277Z,19.41
2019-04-07T16:39:48.460Z,19.29
2019-04-07T16:42:18.497Z,19.25
2019-04-07T16:44:48.509Z,19.03
2019-04-07T16:47:23.257Z,19.22
2019-04-07T16:49:50.561Z,19.68
2019-04-07T16:52:20.574Z,19.20
2019-04-07T16:54:51.584Z,19.06
2019-04-07T16:57:27.057Z,19.02
2019-04-07T16:59:54.246Z,19.22
2019-04-07T17:02:25.134Z,19.09
2019-04-07T17:05:05.783Z,18.87
2019-04-07T17:07:36.366Z,19.50
2019-04-07T17:10:07.915Z,19.60
2019-04-07T17:12:40.618Z,19.41
2019-04-07T17:15:17.493Z,19.05
2019-04-07T17:17:51.350Z,18.98
2019-04-07T17:20:20.042Z,19.16
2019-04-07T17:22:51.099Z,18.59
2019-04-07T17:25:21.712Z,18.76
2019-04-07T17:27:51.949Z,18.57
2019-04-07T17:30:24.371Z,18.64
2019-04-07T17:32:54.538Z,18.69
2019-04-07T17:35:29.558Z,18.61
2019-04-07T17:38:04.108Z,18.63
2019-04-07T17:40:37.682Z,18.33
2019-04-07T17:43:31.164Z,18.28
2019-04-07T17:46:17.010Z,18.41
2019-04-07T17:49:09.958Z,18.77
2019-04-07T17:51:45.457Z,18.54
2019-04-07T17:54:33.414Z,18.16
2019-04-07T17:57:10.028Z,18.09
2019-04-07T17:59:55.917Z,18.21
2019-04-07T18:02:43.089Z,18.13
2019-04-07T18:05:28.107Z,18.17
2019-04-07T18:08:07.785Z,18.11
2019-04-07T18:10:54.137Z,18.60
2019-04-07T18:13:49.350Z,18.46
2019-04-07T18:16:28.665Z,18.10
2019-04-07T18:19:14.217Z,18.14
2019-04-07T18:22:01.200Z,17.86
2019-04-07T18:24:53.300Z,17.89
2019-04-07T18:27:50.687Z,18.11
2019-04-07T18:30:30.456Z,18.24
2019-04-07T18:33:07.885Z,17.50
2019-04-07T18:35:57.009Z,17.59
2019-04-07T18:38:46.988Z,17.78
2019-04-07T18:41:41.359Z,17.67
2019-04-07T18:44:25.157Z,17.68
2019-04-07T18:47:04.799Z,17.58
2019-04-07T18:50:04.141Z,17.46
2019-04-07T18:52:45.696Z,17.62
2019-04-07T18:55:32.097Z,17.36
2019-04-07T18:58:26.724Z,17.46
2019-04-07T19:01:10.272Z,17.70
2019-04-07T19:03:58.734Z,17.25
2019-04-07T19:06:50.764Z,17.34
2019-04-07T19:09:47.633Z,17.23
2019-04-07T19:12:38.492Z,17.26
2019-04-07T19:15:47.533Z,17.37
2019-04-07T19:18:27.140Z,18.06
2019-04-07T19:21:28.399Z,18.58
2019-04-07T19:24:08.015Z,18.76
2019-04-07T19:26:52.262Z,18.32
2019-04-07T19:29:39.124Z,17.46
2019-04-07T19:32:14.648Z,17.33
2019-04-07T19:35:08.896Z,17.58
2019-04-07T19:37:58.412Z,16.90
2019-04-07T19:40:38.161Z,16.59
2019-04-07T19:43:30.774Z,16.87
2019-04-07T19:46:18.358Z,17.27
2019-04-07T19:49:15.217Z,17.96
2019-04-07T19:51:57.384Z,18.02
2019-04-07T19:54:49.465Z,17.32
2019-04-07T19:57:25.836Z,17.62
2019-04-07T20:00:21.565Z,17.46
2019-04-07T20:02:57.382Z,17.92
2019-04-07T20:05:50.903Z,16.89
2019-04-07T20:08:25.720Z,16.59
2019-04-07T20:11:24.730Z,16.62
2019-04-07T20:14:11.745Z,16.46
2019-04-07T20:17:08.422Z,16.07
2019-04-07T20:19:56.157Z,16.17
2019-04-07T20:23:00.273Z,16.32
2019-04-07T20:25:52.748Z,16.17
2019-04-07T20:28:32.590Z,16.01
2019-04-07T20:31:14.662Z,15.85
2019-04-07T20:33:53.354Z,15.96
2019-04-07T20:36:29.719Z,16.19
2019-04-07T20:39:07.906Z,16.07
2019-04-07T20:41:56.717Z,16.22
2019-04-07T20:44:38.245Z,16.26
2019-04-07T20:47:26.626Z,16.84
2019-04-07T20:50:04.286Z,16.38
2019-04-07T20:52:54.417Z,15.98
2019-04-07T20:55:50.675Z,16.48
2019-04-07T20:58:43.684Z,16.14
2019-04-07T21:01:42.950Z,16.26
2019-04-07T21:04:22.219Z,15.46
2019-04-07T21:07:11.525Z,15.12
2019-04-07T21:09:48.428Z,15.42
2019-04-07T21:12:35.740Z,15.63
2019-04-07T21:15:32.352Z,15.10
2019-04-07T21:18:17.934Z,14.85
2019-04-07T21:21:11.796Z,15.04
2019-04-07T21:24:00.396Z,14.89
2019-04-07T21:26:36.009Z,15.02
2019-04-07T21:29:28.369Z,14.97
2019-04-07T21:32:18.776Z,14.86
2019-04-07T21:35:00.479Z,14.99
2019-04-07T21:37:40.708Z,15.15
2019-04-07T21:40:28.585Z,14.51
2019-04-07T21:43:17.960Z,14.75
2019-04-07T21:45:55.758Z,14.97
2019-04-07T21:48:50.895Z,14.36
2019-04-07T21:51:29.046Z,14.57
2019-04-07T21:54:07.665Z,14.61
2019-04-07T21:56:54.283Z,14.78
2019-04-07T21:59:33.486Z,14.25
2019-04-07T22:02:29.217Z,14.27
2019-04-07T22:05:15.584Z,14.46
2019-04-07T22:08:10.961Z,14.49
2019-04-07T22:10:38.132Z,14.37
2019-04-07T22:13:09.166Z,14.32
2019-04-07T22:15:47.403Z,14.37
2019-04-07T22:18:11.235Z,14.94
2019-04-07T22:20:41.467Z,14.76
2019-04-07T22:23:11.430Z,14.79
2019-04-07T22:25:52.090Z,14.45
2019-04-07T22:28:22.712Z,14.82
2019-04-07T22:30:55.003Z,14.68
2019-04-07T22:33:27.498Z,14.84
2019-04-07T22:35:57.561Z,14.25
2019-04-07T22:38:27.788Z,14.81
2019-04-07T22:40:58.432Z,14.69
2019-04-07T22:43:28.493Z,14.69
2019-04-07T22:46:07.655Z,14.39
2019-04-07T22:48:30.953Z,13.97
2019-04-07T22:51:02.848Z,14.23
2019-04-07T22:53:33.200Z,13.65
2019-04-07T22:56:06.363Z,13.64
2019-04-07T22:58:36.109Z,13.72
2019-04-07T23:01:07.583Z,13.54
2019-04-07T23:03:37.873Z,14.07
2019-04-07T23:06:07.929Z,13.72
2019-04-07T23:08:39.043Z,13.63
2019-04-07T23:11:09.344Z,13.35
2019-04-07T23:13:39.815Z,13.67
2019-04-07T23:16:13.816Z,13.62
2019-04-07T23:18:42.230Z,13.39
2019-04-07T23:21:12.384Z,13.34
2019-04-07T23:23:42.281Z,13.27
2019-04-07T23:26:12.601Z,13.60
2019-04-07T23:28:42.586Z,13.77
2019-04-07T23:31:12.721Z,13.44
2019-04-07T23:33:42.699Z,13.58
2019-04-07T23:36:12.620Z,13.48
2019-04-07T23:38:43.814Z,13.87
2019-04-07T23:41:13.818Z,13.38
2019-04-07T23:43:43.858Z,13.43
2019-04-07T23:46:20.629Z,13.17
2019-04-07T23:48:45.672Z,13.38
2019-04-07T23:51:16.425Z,13.34
2019-04-07T23:54:12.772Z,13.54
2019-04-07T23:56:44.910Z,13.31
2019-04-07T23:59:15.386Z,13.37
